Accueil
METAR-TAF:

METAR-TAF

Aéroports :

Aéroport de Zadar

Zadar, Croatie

latitude: 44-06N, longitude: 015-21E, altitude: 82 m

Observation

Le bulletin a été fait il y a 5 minutes, à 11:30 UTC
Vent 8 kt de nord-ouest, variant entre ouest et nord-est
Température 28°C
Humidité 35%
Pression 1017 hPa
Visibilité 10 km ou plus
Quelques nuages à une hauteur de 5000 ft

METAR: LDZD 121130Z 32008KT 260V040 9999 FEW050 28/11 Q1017 BECMG 30012KT

Heure: 13:35 (11:35 UTC)

Prévision

Le bulletin a été fait il y a 10 minutes, à 11:25 UTC
Prévision valable du 12 à 12 UTC au 13 à 12 UTC
Vent 12 kt de ouest/nord-ouest
Visibilité 10 km ou plus
Quelques nuages à une hauteur de 6000 ft
Evoluant progressivement
du 12 à 18 UTC au 12 à 20 UTC
Vent 4 kt de nord-ouest
Evoluant progressivement
du 13 à 07 UTC au 13 à 09 UTC
Vent 8 kt de est/nord-est

TAF: LDZD 121125Z 1212/1312 30012KT 9999 FEW060 TX30/1311Z TN15/1303Z BECMG 1218/1220 32004KT BECMG 1307/1309 06008KT

Observations et prévisions météorologiques de plus de 4000 aéroports (messages METAR et TAF).

Les stations disponibles sont représentées par des disques jaunes et rouges sur la carte.

Passer la souris dessus pour voir le nom de la station.

Cliquer dessus pour voir les observations et prévisions météorologiques.

Pour changer de carte: cliquez sur les boutons verts avec une croix noire pour zoomer, sur le bouton vert avec un tiret pour effectuer un zoom arrière, ou sur les flèches vertes pour les cartes adjacentes.


METAR-TAF: